Αναφορές Αεροδρομίων

 

KSJC - San Jose, California, USA
Distance from station: ΒΑ 14km
Ενημερώθηκε: 28/01/2023 01:53
Μερικώς νεφελώδης
Μερικώς νεφελώδης
 Ανεμος από calm
Ανεμος: Απνοια
Θερμοκρασία: 17°C
Σημείο Δρόσου: 3°C
Υγρασία: 39%
Βαρόμετρο: 1018.6 hPa
Clouds: Μερικώς νεφελώδης
Visibility: 16 km
Cloud details: Μερικώς νεφελώδης 6096 m
2023/01/27 23:53 KSJC 272353Z 00000KT 10SM SCT200 17/03 A3008 RMK AO2 SLP186 T01720028 10172 20100 56028
KNUQ - Moffett Nas/Mtn, California, USA
Distance from station: Β 14km
Ενημερώθηκε: 28/01/2023 01:50
Αίθριος
Αίθριος
 Ανεμος από Β
Ανεμος: Β 7 km/h
Θερμοκρασία: 15°C
Σημείο Δρόσου: 2°C
Υγρασία: 42%
Βαρόμετρο: 1019 hPa
Clouds: Αίθριος
Visibility: 16 km
2023/01/27 23:50 KNUQ 272350Z AUTO 36004KT 10SM CLR 15/02 A3009 RMK AO2
 
KPAO - Palo Alto, California, USA
Distance from station: ΒΒΔ 23km
Ενημερώθηκε: 28/01/2023 01:47
Μερικώς νεφελώδης
Μερικώς νεφελώδης
 Ανεμος από Β
Ανεμος: Β 11 km/h
Θερμοκρασία: 13°C
Σημείο Δρόσου: 6°C
Υγρασία: 63%
Βαρόμετρο: 1019.3 hPa
Clouds: Μερικώς νεφελώδης
Visibility: 16 km
Cloud details: Μερικώς νεφελώδης 3658 m
2023/01/27 23:47 KPAO 272347Z 01006KT 10SM SCT120 13/06 A3010
KRHV - San Jose/Reid, California, USA
Distance from station: ΑΒΑ 19km
Ενημερώθηκε: 28/01/2023 01:47
Μερικώς νεφελώδης
Μερικώς νεφελώδης
 Ανεμος από Β
Ανεμος: Β 9 km/h
Θερμοκρασία: 17°C
Σημείο Δρόσου: 2°C
Υγρασία: 37%
Βαρόμετρο: 1019 hPa
Clouds: Μερικώς νεφελώδης
Visibility: 16 km
Cloud details: Μερικώς νεφελώδης 6096 m
2023/01/27 23:47 KRHV 272347Z 36005KT 10SM SCT200 17/02 A3009
 
KOAK - Oakland, California, USA
Distance from station: ΒΒΔ 50km
Ενημερώθηκε: 28/01/2023 01:53
Σχεδόν νεφελώδης
Σχεδόν νεφελώδης
 Ανεμος από ΔΒΔ
Ανεμος: ΔΒΔ 26 km/h
Θερμοκρασία: 12°C
Σημείο Δρόσου: 7°C
Υγρασία: 72%
Βαρόμετρο: 1019.6 hPa
Clouds: Σχεδόν νεφελώδης
Visibility: 16 km
Cloud details: Few Clouds 305 m
Few Clouds 3658 m
Σχεδόν νεφελώδης 5486 m
Σχεδόν νεφελώδης 6706 m
2023/01/27 23:53 KOAK 272353Z 29014KT 10SM FEW010 FEW120 BKN180 BKN220 12/07 A3011 RMK AO2 SLP196 T01170072 10139 20100 56022
KSQL - San Carlos Airpo, California, USA
Distance from station: ΒΔ 34km
Ενημερώθηκε: 28/01/2023 01:52
Μερικώς νεφελώδης
Μερικώς νεφελώδης
 Ανεμος από ΒΒΔ
Ανεμος: ΒΒΔ 11 km/h
Θερμοκρασία: 14°C
Σημείο Δρόσου: 8°C
Υγρασία: 67%
Βαρόμετρο: 1019.3 hPa
Clouds: Μερικώς νεφελώδης
Visibility: 16 km
Cloud details: Μερικώς νεφελώδης 6096 m
2023/01/27 23:52 KSQL 272352Z 34006KT 10SM SCT200 14/08 A3010
 
KSFO - San Francisco, California, USA
Distance from station: ΒΔ 49km
Ενημερώθηκε: 28/01/2023 01:56
Σχεδόν νεφελώδης
Σχεδόν νεφελώδης
 Ανεμος από ΔΒΔ
Ανεμος: ΔΒΔ 35 km/h
Θερμοκρασία: 11°C
Σημείο Δρόσου: 8°C
Υγρασία: 82%
Βαρόμετρο: 1019.6 hPa
Clouds: Σχεδόν νεφελώδης
Visibility: 16 km
Cloud details: Few Clouds 183 m
Μερικώς νεφελώδης 5486 m
Σχεδόν νεφελώδης 6096 m
2023/01/27 23:56 KSFO 272356Z 29019KT 10SM FEW006 SCT180 BKN200 11/08 A3011 RMK AO2 SLP196 T01110078 10144 20106 55020
KE16 - San Martin, California, USA
Distance from station: ΑΝΑ 43km
Ενημερώθηκε: 28/01/2023 01:55
Αίθριος
Αίθριος
 Ανεμος από ΒΒΔ
Ανεμος: ΒΒΔ 17 km/h
Θερμοκρασία: 18°C
Σημείο Δρόσου: 3°C
Υγρασία: 37%
Βαρόμετρο: 1019 hPa
Clouds: Αίθριος
Visibility: 16 km
2023/01/27 23:55 KE16 272355Z AUTO 33009KT 10SM CLR 18/03 A3009 RMK AO2 PWINO PNO
 
KWVI - Watsonville, California, USA
Distance from station: ΝΝΑ 44km
Ενημερώθηκε: 28/01/2023 01:53
Αίθριος
Αίθριος
 Ανεμος από ΝΝΔ
Ανεμος: ΝΝΔ 7 km/h
Θερμοκρασία: 14°C
Σημείο Δρόσου: 6°C
Υγρασία: 59%
Βαρόμετρο: 1019.3 hPa
Clouds: Αίθριος
Visibility: 16 km
2023/01/27 23:53 KWVI 272353Z AUTO 21004KT 10SM CLR 14/06 A3010 RMK AO2 SLP193 T01390056 10161 20094 56022
KHAF - Half Moon Bay, California, USA
Distance from station: ΔΒΔ 50km
Ενημερώθηκε: 28/01/2023 01:55
Mist, Σχεδόν νεφελώδης
Mist, Σχεδόν νεφελώδης
 Ανεμος από ΒΒΔ
Ανεμος: ΒΒΔ 15 km/h
Θερμοκρασία: 10°C
Wind Chill: 8°C
Σημείο Δρόσου: 9°C
Υγρασία: 94%
Βαρόμετρο: 1020.3 hPa
Περίληψη: Mist
Clouds: Σχεδόν νεφελώδης
Visibility: 10 km
Cloud details: Σχεδόν νεφελώδης 244 m
2023/01/27 23:55 KHAF 272355Z AUTO 33008KT 6SM BR BKN008 10/09 A3013 RMK AO2
 
KHWD - Hayward, California, USA
Distance from station: Β 44km
Ενημερώθηκε: 28/01/2023 01:54
Αίθριος
Αίθριος
 Ανεμος από Δ
Ανεμος: Δ 15 km/h
Θερμοκρασία: 13°C
Σημείο Δρόσου: 8°C
Υγρασία: 72%
Βαρόμετρο: 1019.3 hPa
Clouds: Αίθριος
Visibility: 16 km
2023/01/27 23:54 KHWD 272354Z 28008KT 10SM CLR 13/08 A3010 RMK AO2 SLP201 T01280078 10156 20106 56025
KLVK - Livermore, California, USA
Distance from station: ΒΒΑ 51km
Ενημερώθηκε: 28/01/2023 01:53
Αίθριος
Αίθριος
 Ανεμος από ΝΝΔ
Ανεμος: ΝΝΔ 11 km/h
Θερμοκρασία: 17°C
Σημείο Δρόσου: 6°C
Υγρασία: 49%
Βαρόμετρο: 1017.9 hPa
Clouds: Αίθριος
Visibility: 16 km
2023/01/27 23:53 KLVK 272353Z 21006KT 10SM CLR 17/06 A3006 RMK AO2 SLP179 T01670061 10189 20089 56031